createdAt,value
2024-03-14T00:00:34.542Z,80.28
2024-03-14T00:01:34.504Z,80.07
2024-03-14T00:02:34.519Z,80.07
2024-03-14T00:03:34.484Z,79.97
2024-03-14T00:04:34.445Z,79.97
2024-03-14T00:05:34.427Z,79.87
2024-03-14T00:06:34.452Z,79.73
2024-03-14T00:07:34.422Z,79.77
2024-03-14T00:08:34.408Z,79.63
2024-03-14T00:09:34.414Z,79.63
2024-03-14T00:10:34.363Z,79.66
2024-03-14T00:11:34.390Z,79.52
2024-03-14T00:12:34.391Z,79.52
2024-03-14T00:13:34.321Z,79.56
2024-03-14T00:14:34.316Z,79.56
2024-03-14T00:15:34.399Z,79.66
2024-03-14T00:16:34.296Z,79.52
2024-03-14T00:17:34.425Z,79.46
2024-03-14T00:18:34.522Z,79.56
2024-03-14T00:19:34.247Z,79.56
2024-03-14T00:20:34.254Z,79.42
2024-03-14T00:21:34.338Z,79.46
2024-03-14T00:22:34.203Z,79.42
2024-03-14T00:23:34.336Z,79.42
2024-03-14T00:24:34.227Z,79.42
2024-03-14T00:25:34.162Z,79.46
2024-03-14T00:26:34.158Z,79.42
2024-03-14T00:27:34.179Z,79.46
2024-03-14T00:28:34.220Z,79.46
2024-03-14T00:29:34.104Z,79.46
2024-03-14T00:30:34.147Z,79.56
2024-03-14T00:31:34.076Z,79.56
2024-03-14T00:32:34.121Z,79.46
2024-03-14T00:33:34.213Z,79.46
2024-03-14T00:34:34.075Z,79.56
2024-03-14T00:35:34.022Z,79.56
2024-03-14T00:36:34.158Z,79.56
2024-03-14T00:37:33.996Z,79.56
2024-03-14T00:38:33.989Z,79.56
2024-03-14T00:39:34.104Z,79.56
2024-03-14T00:40:33.962Z,79.56
2024-03-14T00:41:33.940Z,79.56
2024-03-14T00:42:34.018Z,79.56
2024-03-14T00:43:33.918Z,79.60
2024-03-14T00:44:33.918Z,79.49
2024-03-14T00:45:33.963Z,79.46
2024-03-14T00:46:33.880Z,79.46
2024-03-14T00:47:33.940Z,79.46
2024-03-14T00:48:34.012Z,79.36
2024-03-14T00:49:33.835Z,79.36
2024-03-14T00:50:33.841Z,79.25
2024-03-14T00:51:33.856Z,79.25
2024-03-14T00:52:33.797Z,79.25
2024-03-14T00:53:33.782Z,79.25
2024-03-14T00:54:33.801Z,79.15
2024-03-14T00:55:33.756Z,79.15
2024-03-14T00:56:33.744Z,79.15
2024-03-14T00:57:33.821Z,79.05
2024-03-14T00:58:33.718Z,79.05
2024-03-14T00:59:33.701Z,79.01
2024-03-14T01:00:33.813Z,79.05
2024-03-14T01:01:33.761Z,79.05
2024-03-14T01:02:33.661Z,79.05
2024-03-14T01:03:33.704Z,79.05
2024-03-14T01:04:33.635Z,79.05
2024-03-14T01:05:33.666Z,79.05
2024-03-14T01:06:33.648Z,79.05
2024-03-14T01:07:33.598Z,79.05
2024-03-14T01:08:33.581Z,79.15
2024-03-14T01:09:33.589Z,79.19
2024-03-14T01:10:33.553Z,79.05
2024-03-14T01:11:33.577Z,79.15
2024-03-14T01:12:33.584Z,79.05
2024-03-14T01:13:33.522Z,79.05
2024-03-14T01:14:33.499Z,79.05
2024-03-14T01:15:33.552Z,79.05
2024-03-14T01:16:33.474Z,79.05
2024-03-14T01:17:33.482Z,79.05
2024-03-14T01:18:33.483Z,79.05
2024-03-14T01:19:33.446Z,79.05
2024-03-14T01:20:33.419Z,79.08
2024-03-14T01:21:33.447Z,79.19
2024-03-14T01:22:33.505Z,79.15
2024-03-14T01:23:33.390Z,79.15
2024-03-14T01:24:33.383Z,79.15
2024-03-14T01:25:33.347Z,79.15
2024-03-14T01:26:33.333Z,79.15
2024-03-14T01:27:33.372Z,79.15
2024-03-14T01:28:33.316Z,79.15
2024-03-14T01:29:33.301Z,79.15
2024-03-14T01:30:33.318Z,79.19
2024-03-14T01:31:33.268Z,79.19
2024-03-14T01:32:33.280Z,79.15
2024-03-14T01:33:33.320Z,79.15
2024-03-14T01:34:33.228Z,79.19
2024-03-14T01:35:33.226Z,79.19
2024-03-14T01:36:33.209Z,79.25
2024-03-14T01:37:33.188Z,79.15
2024-03-14T01:38:33.205Z,79.29
2024-03-14T01:39:33.238Z,79.29
2024-03-14T01:40:33.150Z,79.25
2024-03-14T01:41:33.135Z,79.29
2024-03-14T01:42:33.234Z,79.39
2024-03-14T01:43:33.105Z,79.39
2024-03-14T01:44:33.094Z,79.49
2024-03-14T01:45:33.089Z,79.49
2024-03-14T01:46:33.064Z,79.49
2024-03-14T01:47:33.090Z,79.49
2024-03-14T01:48:33.142Z,79.49
2024-03-14T01:49:33.024Z,79.49
2024-03-14T01:50:33.027Z,79.53
2024-03-14T01:51:33.057Z,79.49
2024-03-14T01:52:32.984Z,79.49
2024-03-14T01:53:32.984Z,79.63
2024-03-14T01:54:33.025Z,79.63
2024-03-14T01:55:32.946Z,79.74
2024-03-14T01:56:32.935Z,79.74
2024-03-14T01:57:33.022Z,79.74
2024-03-14T01:58:32.906Z,79.88
2024-03-14T01:59:32.892Z,79.84
2024-03-14T02:00:32.938Z,79.98
2024-03-14T02:01:33.192Z,79.88
2024-03-14T02:02:32.852Z,79.98
2024-03-14T02:03:32.876Z,79.98
2024-03-14T02:04:32.822Z,79.98
2024-03-14T02:05:32.820Z,80.08
2024-03-14T02:06:32.850Z,80.08
2024-03-14T02:07:32.781Z,80.08
2024-03-14T02:08:32.774Z,80.19
2024-03-14T02:09:32.866Z,80.19
2024-03-14T02:10:32.762Z,80.29
2024-03-14T02:11:32.725Z,80.39
2024-03-14T02:12:32.751Z,80.43
2024-03-14T02:13:32.703Z,80.53
2024-03-14T02:14:32.691Z,80.63
2024-03-14T02:15:32.779Z,80.63
2024-03-14T02:16:32.676Z,80.63
2024-03-14T02:17:32.723Z,80.53
2024-03-14T02:18:32.718Z,80.63
2024-03-14T02:19:32.651Z,80.63
2024-03-14T02:20:32.649Z,80.67
2024-03-14T02:21:32.790Z,80.63
2024-03-14T02:22:32.593Z,80.77
2024-03-14T02:23:32.570Z,80.77
2024-03-14T02:24:32.550Z,80.77
2024-03-14T02:25:32.544Z,80.77
2024-03-14T02:26:32.543Z,80.77
2024-03-14T02:27:32.525Z,80.88
2024-03-14T02:28:32.509Z,80.88
2024-03-14T02:29:32.499Z,80.88
2024-03-14T02:30:32.497Z,80.88
2024-03-14T02:31:32.469Z,80.98
2024-03-14T02:32:32.491Z,80.98
2024-03-14T02:33:32.508Z,80.98
2024-03-14T02:34:32.416Z,80.88
2024-03-14T02:35:32.408Z,80.98
2024-03-14T02:36:32.394Z,80.98
2024-03-14T02:37:32.384Z,80.98
2024-03-14T02:38:32.363Z,81.12
2024-03-14T02:39:32.373Z,81.09
2024-03-14T02:40:32.337Z,81.19
2024-03-14T02:41:32.331Z,81.23
2024-03-14T02:42:32.391Z,81.23
2024-03-14T02:43:32.298Z,81.19
2024-03-14T02:44:32.284Z,81.23
2024-03-14T02:45:32.539Z,81.33
2024-03-14T02:46:32.263Z,81.33
2024-03-14T02:47:32.307Z,81.23
2024-03-14T02:48:32.351Z,81.23
2024-03-14T02:49:32.231Z,81.23
2024-03-14T02:50:32.212Z,81.23
2024-03-14T02:51:32.194Z,81.16
2024-03-14T02:52:32.177Z,81.12
2024-03-14T02:53:32.163Z,81.09
2024-03-14T02:54:32.221Z,81.12
2024-03-14T02:55:32.138Z,81.12
2024-03-14T02:56:32.122Z,81.02
2024-03-14T02:57:32.176Z,81.02
2024-03-14T02:58:32.111Z,80.98
2024-03-14T02:59:32.097Z,80.98
2024-03-14T03:00:32.127Z,80.98
2024-03-14T03:01:32.115Z,81.02
2024-03-14T03:02:32.041Z,81.09
2024-03-14T03:03:32.027Z,81.09
2024-03-14T03:04:32.451Z,81.09
2024-03-14T03:05:32.008Z,81.09
2024-03-14T03:06:31.988Z,81.12
2024-03-14T03:07:32.077Z,81.12
2024-03-14T03:08:31.960Z,80.98
2024-03-14T03:09:32.011Z,81.12
2024-03-14T03:10:31.954Z,80.98
2024-03-14T03:11:31.953Z,80.98
2024-03-14T03:12:31.957Z,81.02
2024-03-14T03:13:31.905Z,81.02
2024-03-14T03:14:31.897Z,81.02
2024-03-14T03:15:31.909Z,80.98
2024-03-14T03:16:31.853Z,80.98
2024-03-14T03:17:32.308Z,81.02
2024-03-14T03:18:31.876Z,81.02
2024-03-14T03:19:31.823Z,80.98
2024-03-14T03:20:31.799Z,80.98
2024-03-14T03:21:31.887Z,80.88
2024-03-14T03:22:32.022Z,80.88
2024-03-14T03:23:31.763Z,80.88
2024-03-14T03:24:31.773Z,80.88
2024-03-14T03:25:31.734Z,80.88
2024-03-14T03:26:31.721Z,80.88
2024-03-14T03:27:31.734Z,80.88
2024-03-14T03:28:31.699Z,80.88
2024-03-14T03:29:31.686Z,80.88
2024-03-14T03:30:31.763Z,80.88
2024-03-14T03:31:31.651Z,80.88
2024-03-14T03:32:31.651Z,80.88
2024-03-14T03:33:31.725Z,80.88
2024-03-14T03:34:31.622Z,80.88
2024-03-14T03:35:31.610Z,80.88
2024-03-14T03:36:31.688Z,80.88
2024-03-14T03:37:31.573Z,80.88
2024-03-14T03:38:31.561Z,80.88
2024-03-14T03:39:31.650Z,80.88
2024-03-14T03:40:31.556Z,80.88
2024-03-14T03:41:31.801Z,80.88
2024-03-14T03:42:31.543Z,80.98
2024-03-14T03:43:31.500Z,80.98
2024-03-14T03:44:31.475Z,80.98
2024-03-14T03:45:31.547Z,80.98
2024-03-14T03:46:31.478Z,80.98
2024-03-14T03:47:31.509Z,80.98
2024-03-14T03:48:31.506Z,80.98
2024-03-14T03:49:31.419Z,81.12
2024-03-14T03:50:31.400Z,81.12
2024-03-14T03:51:31.489Z,81.09
2024-03-14T03:52:31.389Z,81.09
2024-03-14T03:53:31.375Z,81.09
2024-03-14T03:54:31.426Z,81.12
2024-03-14T03:55:31.337Z,81.12
2024-03-14T03:56:31.346Z,81.12
2024-03-14T03:57:31.374Z,81.12
2024-03-14T03:58:31.300Z,81.12
2024-03-14T03:59:31.283Z,81.12
2024-03-14T04:00:31.414Z,81.12
2024-03-14T04:01:31.264Z,81.09
2024-03-14T04:02:31.314Z,81.09
2024-03-14T04:03:31.422Z,81.09
2024-03-14T04:04:31.213Z,81.12
2024-03-14T04:05:31.201Z,81.23
2024-03-14T04:06:31.235Z,81.09
2024-03-14T04:07:31.177Z,81.12
2024-03-14T04:08:31.168Z,81.12
2024-03-14T04:09:31.236Z,81.09
2024-03-14T04:10:31.143Z,81.12
2024-03-14T04:11:31.246Z,81.23
2024-03-14T04:12:33.193Z,81.19
2024-03-14T04:13:31.091Z,81.23
2024-03-14T04:14:31.079Z,81.33
2024-03-14T04:15:31.146Z,81.19
2024-03-14T04:16:31.055Z,81.23
2024-03-14T04:17:31.062Z,81.23
2024-03-14T04:18:31.114Z,81.23
2024-03-14T04:19:31.031Z,81.19
2024-03-14T04:20:31.015Z,81.23
2024-03-14T04:21:31.073Z,81.23
2024-03-14T04:22:30.977Z,81.23
2024-03-14T04:23:30.966Z,81.23
2024-03-14T04:24:31.079Z,81.09
2024-03-14T04:25:30.946Z,81.12
2024-03-14T04:26:30.936Z,81.19
2024-03-14T04:27:31.000Z,81.23
2024-03-14T04:28:30.942Z,81.23
2024-03-14T04:29:30.879Z,81.12
2024-03-14T04:30:31.300Z,81.12
2024-03-14T04:31:30.850Z,81.23
2024-03-14T04:32:30.844Z,81.12
2024-03-14T04:33:30.888Z,81.09
2024-03-14T04:34:30.821Z,81.12
2024-03-14T04:35:31.199Z,81.12
2024-03-14T04:36:30.807Z,81.12
2024-03-14T04:37:30.774Z,81.09
2024-03-14T04:38:30.784Z,81.19
2024-03-14T04:39:30.875Z,81.19
2024-03-14T04:40:30.731Z,81.23
2024-03-14T04:41:30.723Z,81.23
2024-03-14T04:42:30.756Z,81.23
2024-03-14T04:43:30.743Z,81.23
2024-03-14T04:44:30.676Z,81.33
2024-03-14T04:45:30.786Z,81.23
2024-03-14T04:46:30.648Z,81.33
2024-03-14T04:47:30.654Z,81.33
2024-03-14T04:48:30.717Z,81.33
2024-03-14T04:49:30.612Z,81.23
2024-03-14T04:50:30.596Z,81.23
2024-03-14T04:51:30.624Z,81.23
2024-03-14T04:52:30.573Z,81.23
2024-03-14T04:53:30.562Z,81.33
2024-03-14T04:54:30.625Z,81.19
2024-03-14T04:55:30.529Z,81.23
2024-03-14T04:56:30.524Z,81.33
2024-03-14T04:57:30.516Z,81.23
2024-03-14T04:58:30.491Z,81.33
2024-03-14T04:59:30.506Z,81.43
2024-03-14T05:00:30.667Z,81.53
2024-03-14T05:01:30.469Z,81.63
2024-03-14T05:02:30.436Z,81.67
2024-03-14T05:03:30.669Z,81.67
2024-03-14T05:04:30.406Z,81.77
2024-03-14T05:05:30.394Z,81.77
2024-03-14T05:06:30.488Z,81.77
2024-03-14T05:07:30.374Z,81.77
2024-03-14T05:08:30.353Z,81.77
2024-03-14T05:09:30.374Z,81.77
2024-03-14T05:10:30.338Z,81.88
2024-03-14T05:11:30.386Z,81.77
2024-03-14T05:12:30.334Z,81.88
2024-03-14T05:13:30.290Z,81.88
2024-03-14T05:14:30.288Z,81.77
2024-03-14T05:15:30.370Z,81.77
2024-03-14T05:16:30.267Z,81.88
2024-03-14T05:17:30.241Z,81.88
2024-03-14T05:18:30.307Z,81.88
2024-03-14T05:19:30.213Z,81.98
2024-03-14T05:20:30.354Z,81.98
2024-03-14T05:21:30.254Z,81.98
2024-03-14T05:22:30.171Z,81.98
2024-03-14T05:23:30.154Z,82.09
2024-03-14T05:24:30.208Z,82.09
2024-03-14T05:25:30.179Z,82.19
2024-03-14T05:26:30.121Z,82.19
2024-03-14T05:27:30.118Z,82.19
2024-03-14T05:28:30.099Z,82.19
2024-03-14T05:29:30.075Z,82.33
2024-03-14T05:30:30.107Z,82.33
2024-03-14T05:31:30.124Z,82.43
2024-03-14T05:32:30.210Z,82.43
2024-03-14T05:33:30.187Z,82.33
2024-03-14T05:34:30.016Z,82.43
2024-03-14T05:35:30.076Z,82.43
2024-03-14T05:36:30.026Z,82.43
2024-03-14T05:37:29.968Z,82.43
2024-03-14T05:38:29.959Z,82.43
2024-03-14T05:39:30.057Z,82.43
2024-03-14T05:40:29.936Z,82.54
2024-03-14T05:41:29.917Z,82.54
2024-03-14T05:42:29.936Z,82.64
2024-03-14T05:43:29.905Z,82.64
2024-03-14T05:44:29.879Z,82.64
2024-03-14T05:45:29.907Z,82.64
2024-03-14T05:46:29.849Z,82.64
2024-03-14T05:47:29.878Z,82.68
2024-03-14T05:48:29.851Z,82.64
2024-03-14T05:49:29.832Z,82.74
2024-03-14T05:50:29.798Z,82.74
2024-03-14T05:51:29.810Z,82.74
2024-03-14T05:52:29.769Z,82.74
2024-03-14T05:53:29.757Z,82.74
2024-03-14T05:54:29.814Z,82.74
2024-03-14T05:55:29.734Z,82.74
2024-03-14T05:56:29.715Z,82.89
2024-03-14T05:57:29.737Z,82.84
2024-03-14T05:58:29.692Z,82.84
2024-03-14T05:59:29.680Z,82.89
2024-03-14T06:00:29.681Z,82.84
2024-03-14T06:01:29.653Z,82.89
2024-03-14T06:02:29.660Z,82.84
2024-03-14T06:03:29.793Z,82.89
2024-03-14T06:04:29.864Z,82.89
2024-03-14T06:05:29.631Z,82.84
2024-03-14T06:06:29.683Z,82.89
2024-03-14T06:07:29.573Z,82.84
2024-03-14T06:08:29.557Z,82.84
2024-03-14T06:09:29.714Z,82.89
2024-03-14T06:10:29.546Z,82.74
2024-03-14T06:11:29.549Z,82.74
2024-03-14T06:12:29.587Z,82.74
2024-03-14T06:13:29.492Z,82.74
2024-03-14T06:14:29.494Z,82.74
2024-03-14T06:15:29.503Z,82.74
2024-03-14T06:16:29.454Z,82.64
2024-03-14T06:17:29.451Z,82.64
2024-03-14T06:18:29.553Z,82.64
2024-03-14T06:19:29.433Z,82.64
2024-03-14T06:20:29.400Z,82.54
2024-03-14T06:21:29.675Z,82.64
2024-03-14T06:22:29.373Z,82.95
2024-03-14T06:23:29.366Z,82.84
2024-03-14T06:24:29.698Z,83.15
2024-03-14T06:25:29.345Z,82.95
2024-03-14T06:26:29.335Z,83.09
2024-03-14T06:27:29.397Z,82.98
2024-03-14T06:28:29.291Z,82.95
2024-03-14T06:29:29.280Z,82.95
2024-03-14T06:30:29.358Z,82.98
2024-03-14T06:31:29.273Z,82.95
2024-03-14T06:32:29.282Z,82.95
2024-03-14T06:33:29.331Z,82.84
2024-03-14T06:34:29.226Z,82.74
2024-03-14T06:35:29.218Z,82.74
2024-03-14T06:36:29.286Z,82.74
2024-03-14T06:37:29.173Z,82.64
2024-03-14T06:38:29.177Z,82.64
2024-03-14T06:39:29.665Z,82.60
2024-03-14T06:40:29.138Z,82.60
2024-03-14T06:41:29.119Z,82.60
2024-03-14T06:42:29.306Z,82.50
2024-03-14T06:43:29.454Z,82.81
2024-03-14T06:44:29.080Z,82.91
2024-03-14T06:45:29.109Z,83.15
2024-03-14T06:46:29.053Z,82.84
2024-03-14T06:47:29.070Z,82.81
2024-03-14T06:48:29.139Z,82.70
2024-03-14T06:49:29.012Z,82.60
2024-03-14T06:50:28.999Z,82.60
2024-03-14T06:51:29.125Z,82.70
2024-03-14T06:52:28.986Z,82.60
2024-03-14T06:53:28.970Z,82.50
2024-03-14T06:54:29.017Z,82.35
2024-03-14T06:55:28.934Z,82.25
2024-03-14T06:56:28.984Z,82.05
2024-03-14T06:57:28.943Z,81.84
2024-03-14T06:58:28.902Z,81.74
2024-03-14T06:59:28.895Z,81.70
2024-03-14T07:00:28.918Z,81.49
2024-03-14T07:01:28.924Z,81.60
2024-03-14T07:02:28.841Z,81.60
2024-03-14T07:03:28.906Z,81.70
2024-03-14T07:04:28.813Z,82.11
2024-03-14T07:05:28.796Z,81.49
2024-03-14T07:06:28.919Z,81.25
2024-03-14T07:07:28.794Z,81.19
2024-03-14T07:08:28.758Z,81.76
2024-03-14T07:09:28.939Z,81.87
2024-03-14T07:10:28.833Z,81.67
2024-03-14T07:11:28.751Z,81.76
2024-03-14T07:12:28.753Z,82.18
2024-03-14T07:13:28.698Z,82.07
2024-03-14T07:14:28.681Z,81.97
2024-03-14T07:15:28.717Z,81.97
2024-03-14T07:16:28.662Z,81.73
2024-03-14T07:17:28.669Z,82.59
2024-03-14T07:18:28.714Z,82.28
2024-03-14T07:19:28.614Z,81.97
2024-03-14T07:20:28.595Z,81.73
2024-03-14T07:21:28.668Z,81.67
2024-03-14T07:22:28.572Z,82.04
2024-03-14T07:23:28.576Z,82.24
2024-03-14T07:24:28.564Z,82.76
2024-03-14T07:25:28.528Z,82.65
2024-03-14T07:26:28.516Z,82.96
2024-03-14T07:27:28.532Z,82.55
2024-03-14T07:28:28.490Z,81.73
2024-03-14T07:29:28.473Z,80.97
2024-03-14T07:30:28.492Z,80.97
2024-03-14T07:31:28.446Z,80.56
2024-03-14T07:32:28.445Z,80.63
2024-03-14T07:33:28.521Z,80.42
2024-03-14T07:34:28.412Z,81.04
2024-03-14T07:35:28.398Z,82.37
2024-03-14T07:36:28.423Z,82.06
2024-03-14T07:37:28.380Z,83.09
2024-03-14T07:38:28.408Z,82.17
2024-03-14T07:39:28.413Z,82.17
2024-03-14T07:40:28.344Z,84.94
2024-03-14T07:41:30.407Z,85.86
2024-03-14T07:42:28.334Z,86.21
2024-03-14T07:43:28.287Z,85.60
2024-03-14T07:44:33.385Z,85.70
2024-03-14T07:45:28.285Z,84.42
2024-03-14T07:46:28.248Z,85.35
2024-03-14T07:47:28.251Z,86.42
2024-03-14T07:48:28.389Z,87.24
2024-03-14T07:49:28.213Z,86.46
2024-03-14T07:50:28.193Z,85.28
2024-03-14T07:51:28.273Z,84.56
2024-03-14T07:52:28.163Z,84.16
2024-03-14T07:53:28.157Z,83.44
2024-03-14T07:54:28.201Z,83.19
2024-03-14T07:55:28.158Z,82.89
2024-03-14T07:56:28.116Z,82.03
2024-03-14T07:57:28.603Z,82.33
2024-03-14T07:58:28.094Z,82.17
2024-03-14T07:59:29.946Z,83.05
2024-03-14T08:00:28.157Z,83.36
2024-03-14T08:01:28.139Z,82.13
2024-03-14T08:02:28.033Z,82.60
2024-03-14T08:03:28.136Z,82.75
2024-03-14T08:04:28.006Z,83.01
2024-03-14T08:05:28.002Z,82.91
2024-03-14T08:06:28.050Z,84.66
2024-03-14T08:07:27.963Z,84.14
2024-03-14T08:08:27.955Z,86.30
2024-03-14T08:09:28.627Z,87.12
2024-03-14T08:10:27.927Z,86.36
2024-03-14T08:11:27.973Z,86.05
2024-03-14T08:12:28.012Z,87.49
2024-03-14T08:13:27.885Z,88.88
2024-03-14T08:14:27.870Z,89.90
2024-03-14T08:15:27.929Z,90.73
2024-03-14T08:16:27.844Z,89.60
2024-03-14T08:17:27.843Z,86.79
2024-03-14T08:18:27.901Z,89.25
2024-03-14T08:19:27.816Z,91.50
2024-03-14T08:20:27.796Z,92.94
2024-03-14T08:21:27.818Z,92.02
2024-03-14T08:22:27.768Z,90.34
2024-03-14T08:23:28.446Z,91.36
2024-03-14T08:24:27.810Z,88.24
2024-03-14T08:25:27.721Z,88.86
2024-03-14T08:26:27.710Z,88.65
2024-03-14T08:27:27.776Z,90.36
2024-03-14T08:28:27.694Z,93.52
2024-03-14T08:29:27.666Z,92.10
2024-03-14T08:30:27.668Z,92.97
2024-03-14T08:31:27.644Z,94.20
2024-03-14T08:32:27.638Z,99.99
2024-03-14T08:33:27.796Z,99.99
2024-03-14T08:34:27.604Z,99.99
2024-03-14T08:35:27.586Z,99.99
2024-03-14T08:36:27.577Z,99.99
2024-03-14T08:37:27.562Z,99.99
2024-03-14T08:38:27.544Z,99.99
2024-03-14T08:39:27.652Z,99.99
2024-03-14T08:40:27.526Z,99.99
2024-03-14T08:41:27.509Z,99.99
2024-03-14T08:42:28.528Z,99.99
2024-03-14T08:43:27.510Z,99.99
2024-03-14T08:44:27.471Z,99.99
2024-03-14T08:45:27.540Z,99.99
2024-03-14T08:46:27.445Z,99.99
2024-03-14T08:47:27.659Z,99.99
2024-03-14T08:48:27.524Z,99.99
2024-03-14T08:49:27.699Z,99.99
2024-03-14T08:50:28.752Z,99.99
2024-03-14T08:51:27.410Z,99.99
2024-03-14T08:52:27.675Z,99.99
2024-03-14T08:53:27.348Z,99.99
2024-03-14T08:54:27.378Z,99.99
2024-03-14T08:55:27.321Z,99.99
2024-03-14T08:56:27.313Z,99.99
2024-03-14T08:57:27.423Z,99.99
2024-03-14T08:58:27.827Z,99.99
2024-03-14T08:59:27.297Z,99.99
2024-03-14T09:00:27.287Z,97.89
2024-03-14T09:01:27.259Z,99.99
2024-03-14T09:02:27.244Z,95.67
2024-03-14T09:03:27.268Z,91.89
2024-03-14T09:04:27.202Z,88.35
2024-03-14T09:05:27.188Z,88.29
2024-03-14T09:06:27.175Z,99.27
2024-03-14T09:07:27.162Z,89.46
2024-03-14T09:08:27.157Z,95.37
2024-03-14T09:09:27.187Z,95.73
2024-03-14T09:10:27.129Z,99.99
2024-03-14T09:11:27.146Z,95.83
2024-03-14T09:12:27.191Z,87.95
2024-03-14T09:13:27.308Z,90.23
2024-03-14T09:14:27.068Z,86.93
2024-03-14T09:15:27.138Z,96.54
2024-03-14T09:16:27.040Z,93.81
2024-03-14T09:17:27.113Z,97.69
2024-03-14T09:18:28.268Z,99.99
2024-03-14T09:19:27.001Z,89.24
2024-03-14T09:20:27.038Z,94.20
2024-03-14T09:21:27.078Z,89.18
2024-03-14T09:22:26.973Z,89.99
2024-03-14T09:23:27.288Z,99.99
2024-03-14T09:24:26.973Z,99.99
2024-03-14T09:25:26.920Z,99.99
2024-03-14T09:26:26.907Z,90.91
2024-03-14T09:27:26.946Z,99.99
2024-03-14T09:28:26.883Z,97.23
2024-03-14T09:29:26.866Z,99.99
2024-03-14T09:30:26.913Z,99.99
2024-03-14T09:31:26.877Z,99.99
2024-03-14T09:32:26.849Z,99.99
2024-03-14T09:33:26.872Z,99.99
2024-03-14T09:34:26.809Z,99.99
2024-03-14T09:35:27.667Z,99.99
2024-03-14T09:36:26.808Z,99.99
2024-03-14T09:37:26.758Z,99.99
2024-03-14T09:38:26.751Z,99.99
2024-03-14T09:39:26.755Z,99.99
2024-03-14T09:40:26.736Z,99.56
2024-03-14T09:41:27.559Z,93.08
2024-03-14T09:42:26.770Z,88.79
2024-03-14T09:43:26.694Z,95.98
2024-03-14T09:44:26.677Z,89.66
2024-03-14T09:45:26.814Z,83.70
2024-03-14T09:46:26.641Z,89.12
2024-03-14T09:47:26.949Z,91.24
2024-03-14T09:48:26.664Z,85.11
2024-03-14T09:49:26.601Z,82.83
2024-03-14T09:50:26.586Z,84.22
2024-03-14T09:51:26.670Z,91.05
2024-03-14T09:52:26.566Z,89.12
2024-03-14T09:53:26.550Z,99.99
2024-03-14T09:54:26.575Z,97.53
2024-03-14T09:55:26.641Z,99.30
2024-03-14T09:56:26.508Z,93.77
2024-03-14T09:57:26.542Z,99.99
2024-03-14T09:58:26.508Z,99.99
2024-03-14T09:59:26.514Z,99.99
2024-03-14T10:00:26.500Z,98.43
2024-03-14T10:01:26.479Z,99.99
2024-03-14T10:02:26.439Z,96.64
2024-03-14T10:03:26.556Z,99.99
2024-03-14T10:04:26.404Z,99.99
2024-03-14T10:05:26.409Z,99.99
2024-03-14T10:06:26.410Z,99.99
2024-03-14T10:07:26.363Z,99.99
2024-03-14T10:08:26.356Z,99.99
2024-03-14T10:09:28.226Z,99.99
2024-03-14T10:10:26.360Z,99.99
2024-03-14T10:11:26.347Z,99.99
2024-03-14T10:12:26.373Z,99.99
2024-03-14T10:13:26.308Z,99.99
2024-03-14T10:14:26.269Z,99.99
2024-03-14T10:15:26.362Z,99.99
2024-03-14T10:16:26.260Z,99.99
2024-03-14T10:17:26.316Z,99.99
2024-03-14T10:18:26.325Z,99.99
2024-03-14T10:19:26.227Z,99.99
2024-03-14T10:20:26.209Z,99.99
2024-03-14T10:21:26.217Z,99.99
2024-03-14T10:22:26.165Z,99.99
2024-03-14T10:23:26.161Z,99.99
2024-03-14T10:24:26.170Z,99.99
2024-03-14T10:25:26.209Z,99.99
2024-03-14T10:26:26.191Z,99.99
2024-03-14T10:27:26.113Z,99.99
2024-03-14T10:28:26.083Z,99.99
2024-03-14T10:29:26.072Z,99.99
2024-03-14T10:30:26.232Z,99.99
2024-03-14T10:31:26.052Z,99.01
2024-03-14T10:32:26.030Z,96.69
2024-03-14T10:33:26.064Z,92.61
2024-03-14T10:34:26.029Z,91.60
2024-03-14T10:35:26.046Z,96.85
2024-03-14T10:36:26.016Z,92.71
2024-03-14T10:37:25.959Z,84.77
2024-03-14T10:38:25.945Z,86.29
2024-03-14T10:39:25.974Z,91.34
2024-03-14T10:40:25.922Z,85.78
2024-03-14T10:41:25.906Z,85.31
2024-03-14T10:42:25.932Z,87.34
2024-03-14T10:43:25.883Z,80.57
2024-03-14T10:44:25.967Z,85.31
2024-03-14T10:45:26.050Z,82.89
2024-03-14T10:46:25.846Z,86.19
2024-03-14T10:47:25.822Z,81.44
2024-03-14T10:48:25.913Z,88.10
2024-03-14T10:49:25.896Z,87.84
2024-03-14T10:50:25.799Z,83.90
2024-03-14T10:51:25.811Z,86.22
2024-03-14T10:52:25.760Z,81.11
2024-03-14T10:53:25.774Z,87.12
2024-03-14T10:54:25.799Z,80.74
2024-03-14T10:55:25.729Z,90.45
2024-03-14T10:56:25.724Z,87.12
2024-03-14T10:57:25.708Z,87.93
2024-03-14T10:58:25.679Z,86.31
2024-03-14T10:59:25.666Z,90.16
2024-03-14T11:00:25.730Z,94.85
2024-03-14T11:01:25.889Z,99.05
2024-03-14T11:02:25.626Z,96.02
2024-03-14T11:03:25.659Z,93.90
2024-03-14T11:04:25.600Z,97.64
2024-03-14T11:05:25.598Z,99.99
2024-03-14T11:06:25.810Z,90.05
2024-03-14T11:07:25.742Z,87.22
2024-03-14T11:08:25.544Z,89.24
2024-03-14T11:09:25.585Z,87.12
2024-03-14T11:10:25.558Z,94.50
2024-03-14T11:11:25.526Z,85.86
2024-03-14T11:12:25.552Z,81.85
2024-03-14T11:13:25.485Z,86.91
2024-03-14T11:14:25.465Z,82.40
2024-03-14T11:15:25.523Z,87.46
2024-03-14T11:16:25.439Z,84.83
2024-03-14T11:17:25.428Z,88.98
2024-03-14T11:18:25.602Z,86.05
2024-03-14T11:19:25.404Z,80.38
2024-03-14T11:20:25.388Z,84.42
2024-03-14T11:21:25.395Z,85.39
2024-03-14T11:22:25.363Z,81.45
2024-03-14T11:23:25.470Z,84.19
2024-03-14T11:24:25.378Z,87.22
2024-03-14T11:25:25.319Z,81.25
2024-03-14T11:26:25.306Z,79.69
2024-03-14T11:27:25.333Z,79.19
2024-03-14T11:28:25.281Z,81.31
2024-03-14T11:29:25.268Z,78.38
2024-03-14T11:30:25.319Z,82.08
2024-03-14T11:31:25.242Z,82.99
2024-03-14T11:32:25.279Z,79.75
2024-03-14T11:33:25.319Z,77.64
2024-03-14T11:34:25.214Z,79.01
2024-03-14T11:35:25.185Z,80.29
2024-03-14T11:36:25.242Z,80.19
2024-03-14T11:37:25.157Z,76.07
2024-03-14T11:38:25.143Z,80.58
2024-03-14T11:39:25.190Z,83.50
2024-03-14T11:40:25.156Z,85.82
2024-03-14T11:41:25.110Z,82.19
2024-03-14T11:42:25.217Z,83.10
2024-03-14T11:43:25.083Z,77.15
2024-03-14T11:44:25.071Z,79.83
2024-03-14T11:45:25.139Z,76.71
2024-03-14T11:46:25.044Z,76.81
2024-03-14T11:47:25.025Z,76.31
2024-03-14T11:48:25.147Z,76.47
2024-03-14T11:49:25.008Z,75.76
2024-03-14T11:50:24.986Z,75.96
2024-03-14T11:51:25.026Z,73.65
2024-03-14T11:52:24.961Z,74.26
2024-03-14T11:53:24.957Z,74.49
2024-03-14T11:54:25.148Z,77.11
2024-03-14T11:55:24.943Z,74.76
2024-03-14T11:56:24.907Z,74.35
2024-03-14T11:57:24.917Z,78.28
2024-03-14T11:58:24.894Z,72.41
2024-03-14T11:59:24.901Z,74.93
2024-03-14T12:00:24.876Z,72.41
2024-03-14T12:01:28.753Z,69.29
2024-03-14T12:02:25.872Z,73.11
2024-03-14T12:03:24.890Z,73.11
2024-03-14T12:04:24.801Z,70.29
2024-03-14T12:05:24.787Z,69.85
2024-03-14T12:06:24.899Z,75.29
2024-03-14T12:07:24.776Z,73.95
2024-03-14T12:08:24.771Z,70.23
2024-03-14T12:09:24.808Z,71.13
2024-03-14T12:10:24.757Z,71.53
2024-03-14T12:11:24.754Z,70.79
2024-03-14T12:12:24.723Z,73.81
2024-03-14T12:13:24.734Z,79.44
2024-03-14T12:14:24.777Z,72.61
2024-03-14T12:15:24.708Z,72.97
2024-03-14T12:16:24.652Z,72.71
2024-03-14T12:17:24.634Z,73.55
2024-03-14T12:18:24.693Z,76.67
2024-03-14T12:19:24.802Z,75.46
2024-03-14T12:20:24.614Z,75.50
2024-03-14T12:21:24.581Z,78.28
2024-03-14T12:22:24.595Z,77.48
2024-03-14T12:23:24.571Z,71.10
2024-03-14T12:24:24.530Z,69.65
2024-03-14T12:25:24.530Z,70.12
2024-03-14T12:26:24.587Z,72.00
2024-03-14T12:27:24.681Z,69.99
2024-03-14T12:28:24.480Z,72.87
2024-03-14T12:29:24.517Z,70.16
2024-03-14T12:30:24.474Z,71.03
2024-03-14T12:31:24.566Z,68.88
2024-03-14T12:32:24.430Z,67.18
2024-03-14T12:33:24.451Z,66.24
2024-03-14T12:34:24.431Z,67.61
2024-03-14T12:35:24.460Z,66.71
2024-03-14T12:36:24.639Z,68.22
2024-03-14T12:37:24.362Z,68.62
2024-03-14T12:38:24.436Z,68.02
2024-03-14T12:39:24.366Z,66.21
2024-03-14T12:40:24.387Z,63.70
2024-03-14T12:41:24.719Z,66.21
2024-03-14T12:42:24.321Z,67.52
2024-03-14T12:43:24.306Z,73.24
2024-03-14T12:44:24.273Z,73.00
2024-03-14T12:45:24.315Z,69.96
2024-03-14T12:46:24.586Z,71.60
2024-03-14T12:47:24.227Z,72.84
2024-03-14T12:48:24.281Z,72.53
2024-03-14T12:49:24.207Z,70.93
2024-03-14T12:50:24.187Z,70.43
2024-03-14T12:51:24.654Z,70.23
2024-03-14T12:52:24.167Z,65.88